Boulevard West (444, 445, 6931) Station Data

Red Flag Warning: No
Fire Weather Zone: 258
SDGE Region: Mountain Empire
Lat/Lon: 32.662/-116.289

Observations

Time Wind Speed/Gust Temp(F) RH Fuel Moist Fuel Temp(F) Dewpt(F) Tmax(F) Tmin(F) Accum Precip 10-min Precip SL Press(mb)
3/29 8:00am 61 16 G 24 60° 16% - - 14° 60.7° 49.5° - - -
3/29 7:50am 58 14 G 20 59° 17% - - 15° 60° 49.5° - - -
3/29 7:40am 56 12 G 17 58° 19% - - 16° 58.7° 49.5° - - -
3/29 7:30am 59 11 G 17 57° 19% - - 15° 57.5° 49.5° - - -
3/29 7:20am 57 10 G 14 55° 20% - - 14° 57.4° 49.5° - - -
3/29 7:10am 57 10 G 14 54° 20% - - 13° 57.4° 49.5° - - -
3/29 7:00am 58 8 G 12 53° 20% - - 13° 57.4° 49.5° - - -
3/29 6:50am 20 4 G 8 51° 22% - - 13° 57.4° 49.5° - - -
3/29 6:40am 343 4 G 7 50° 22% - - 13° 57.4° 49.5° - - -
3/29 6:30am 17 5 G 8 53° 19% - - 12° 57.4° 50.9° - - -
3/29 6:20am 44 8 G 10 55° 17% - - 11° 57.4° 50.9° - - -
3/29 6:10am 46 8 G 10 56° 16% - - 10° 57.4° 50.9° - - -
3/29 6:00am 58 8 G 9 57° 15% - - 57.4° 50.9° - - -
3/29 5:50am 59 6 G 8 57° 15% - - 57.4° 50.9° - - -
3/29 5:40am 72 5 G 7 57° 15% - - 57.3° 50.9° - - -
3/29 5:30am 74 5 G 6 57° 15% - - 57.3° 50.9° - - -
3/29 5:20am 65 7 G 9 57° 15% - - 57.3° 50.9° - - -
3/29 5:10am 58 7 G 9 57° 15% - - 10° 57.2° 50.9° - - -
3/29 5:00am 57 9 G 11 56° 15% - - 10° 57° 50.9° - - -
3/29 4:50am 60 10 G 12 57° 15% - - 10° 57° 50.9° - - -
3/29 4:40am 51 7 G 9 56° 15% - - 10° 56.9° 50.9° - - -
3/29 4:30am 57 8 G 11 55° 17% - - 11° 56.8° 50.9° - - -
3/29 4:20am 49 8 G 10 55° 17% - - 11° 56.8° 50.9° - - -
3/29 4:10am 52 8 G 10 56° 16% - - 10° 56.8° 50.9° - - -
3/29 4:00am 47 6 G 10 56° 16% - - 10° 56.8° 50.9° - - -
3/29 3:50am 47 8 G 11 56° 16% - - 10° 56.8° 50.9° - - -
3/29 3:40am 54 10 G 14 55° 17% - - 11° 56.8° 50.9° - - -
3/29 3:30am 51 12 G 17 54° 18% - - 12° 56.8° 50.9° - - -
3/29 3:20am 48 14 G 19 54° 18% - - 11° 56.8° 50.9° - - -
3/29 3:10am 46 15 G 19 54° 18% - - 11° 56.8° 50.9° - - -
3/29 3:00am 44 13 G 19 54° 18% - - 12° 56.8° 50.9° - - -
3/29 2:50am 36 14 G 18 55° 17% - - 11° 56.8° 50.9° - - -
3/29 2:40am 35 12 G 16 54° 18% - - 12° 56.8° 50.9° - - -
3/29 2:30am 36 13 G 16 54° 19% - - 12° 56.8° 50.9° - - -
3/29 2:20am 44 11 G 16 54° 19% - - 12° 56.8° 50.9° - - -
3/29 2:10am 48 11 G 15 54° 18% - - 12° 56.8° 50.9° - - -
3/29 2:00am 60 10 G 14 55° 16% - - 11° 56.8° 50.9° - - -
3/29 1:50am 63 12 G 17 56° 15% - - 10° 56.8° 50.9° - - -
3/29 1:40am 54 9 G 15 55° 16% - - 10° 55.7° 50.9° - - -
3/29 1:30am 48 7 G 10 54° 18% - - 11° 55.4° 50.9° - - -
3/29 1:20am 40 6 G 8 54° 18% - - 11° 55.4° 50.9° - - -
3/29 1:10am 49 6 G 10 55° 17% - - 11° 55.4° 50.9° - - -
3/29 1:00am 30 5 G 9 54° 18% - - 12° 54.8° 50.9° - - -
3/29 12:50am 21 5 G 7 54° 18% - - 12° 54.8° 50.9° - - -
3/29 12:40am 36 5 G 10 53° 19% - - 12° 54.5° 50.9° - - -
3/29 12:30am 346 4 G 6 52° 21% - - 13° 52.7° 50.9° - - -
3/29 12:20am 322 4 G 5 52° 20% - - 12° 52.7° 50.9° - - -
3/29 12:10am 298 3 G 5 52° 21% - - 13° 52.1° 50.9° - - -
3/29 12:00am 302 3 G 4 51° 22% - - 13° 65.8° 39.9° - - -
3/28 11:50pm 313 4 G 5 52° 21% - - 13° 65.8° 39.9° - - -
3/28 11:40pm 316 4 G 5 53° 20% - - 13° 65.8° 39.9° - - -
3/28 11:30pm 314 4 G 5 53° 20% - - 13° 65.8° 39.9° - - -
3/28 11:20pm 312 4 G 5 53° 20% - - 13° 65.8° 39.9° - - -
3/28 11:10pm 310 4 G 5 53° 21% - - 13° 65.8° 39.9° - - -
3/28 11:00pm 310 4 G 4 51° 23% - - 15° 65.8° 39.9° - - -
3/28 10:50pm 312 5 G 6 51° 29% - - 19° 65.8° 39.9° - - -
3/28 10:40pm 350 5 G 6 53° 25% - - 18° 65.8° 39.9° - - -
3/28 10:30pm 342 4 G 6 53° 24% - - 17° 65.8° 39.9° - - -
3/28 10:20pm 360 4 G 6 51° 25% - - 16° 65.8° 39.9° - - -
3/28 10:10pm 326 4 G 5 50° 31% - - 20° 65.8° 39.9° - - -
3/28 10:00pm 307 3 G 5 52° 34% - - 24° 65.8° 39.9° - - -
3/28 9:50pm 340 2 G 4 54° 37% - - 28° 65.8° 39.9° - - -
3/28 9:40pm 301 2 G 3 56° 36% - - 29° 65.8° 39.9° - - -
3/28 9:30pm 282 2 G 3 55° 39% - - 30° 65.8° 39.9° - - -
3/28 9:20pm 283 3 G 4 55° 43% - - 33° 65.8° 39.9° - - -
3/28 9:10pm 284 4 G 5 56° 41% - - 33° 65.8° 39.9° - - -
3/28 9:00pm 268 4 G 5 56° 42% - - 33° 65.8° 39.9° - - -
3/28 8:50pm 274 5 G 7 54° 55% - - 39° 65.8° 39.9° - - -
3/28 8:40pm 271 5 G 6 54° 58% - - 39° 65.8° 39.9° - - -
3/28 8:30pm 278 4 G 7 53° 61% - - 40° 65.8° 39.9° - - -
3/28 8:20pm 271 7 G 8 54° 59% - - 40° 65.8° 39.9° - - -
3/28 8:10pm 270 7 G 9 54° 59% - - 40° 65.8° 39.9° - - -
3/28 8:00pm 267 8 G 10 54° 58% - - 40° 65.8° 39.9° - - -
3/28 7:50pm 270 9 G 13 55° 57% - - 40° 65.8° 39.9° - - -
3/28 7:40pm 268 9 G 15 55° 56% - - 40° 65.8° 39.9° - - -
3/28 7:30pm 265 9 G 12 56° 56% - - 40° 65.8° 39.9° - - -
3/28 7:20pm 262 9 G 13 56° 55% - - 40° 65.8° 39.9° - - -
3/28 7:10pm 255 9 G 14 57° 53% - - 40° 65.8° 39.9° - - -
3/28 7:00pm 271 5 G 9 59° 50% - - 40° 65.8° 39.9° - - -
3/28 6:50pm 269 4 G 8 60° 34% - - 30° 65.8° 39.9° - - -
3/28 6:40pm 79 2 G 4 62° 12% - - 65.8° 39.9° - - -
3/28 6:30pm 43 4 G 7 62° 12% - - 65.8° 39.9° - - -
3/28 6:20pm 71 5 G 7 62° 12% - - 65.8° 39.9° - - -
3/28 6:10pm 67 6 G 10 63° 12% - - 65.8° 39.9° - - -
3/28 6:00pm 59 6 G 10 63° 12% - - 10° 65.8° 39.9° - - -
3/28 5:50pm 71 7 G 11 63° 12% - - 10° 65.8° 39.9° - - -
3/28 5:40pm 90 6 G 9 64° 12% - - 10° 65.8° 39.9° - - -
3/28 5:30pm 87 6 G 10 64° 12% - - 10° 65.8° 39.9° - - -
3/28 5:20pm 95 8 G 12 64° 12% - - 11° 65.8° 39.9° - - -
3/28 5:10pm 86 8 G 12 64° 12% - - 11° 65.8° 39.9° - - -
3/28 5:00pm 100 6 G 11 64° 12% - - 11° 65.8° 39.9° - - -
3/28 4:50pm 105 6 G 11 64° 12% - - 11° 65.8° 39.9° - - -
3/28 4:40pm 92 6 G 11 64° 12% - - 11° 65.8° 39.9° - - -
3/28 4:30pm 95 6 G 10 64° 12% - - 11° 65.8° 39.9° - - -
3/28 4:20pm 84 7 G 12 64° 12% - - 10° 65.8° 39.9° - - -
3/28 4:10pm 93 9 G 17 64° 12% - - 10° 65.8° 39.9° - - -
3/28 4:00pm 88 6 G 11 64° 12% - - 11° 65.8° 39.9° - - -
3/28 3:50pm 24 5 G 10 64° 12% - - 11° 65.8° 39.9° - - -
3/28 3:40pm 46 6 G 24 65° 13% - - 12° 65.8° 39.9° - - -
3/28 3:30pm 68 7 G 15 65° 12% - - 12° 65.8° 39.9° - - -
3/28 3:20pm 78 5 G 10 64° 12% - - 11° 64.8° 39.9° - - -
3/28 3:10pm 78 6 G 11 63° 12% - - 10° 64.8° 39.9° - - -
3/28 3:00pm 55 8 G 13 64° 12% - - 11° 64.8° 39.9° - - -
3/28 2:50pm 50 8 G 12 63° 12% - - 10° 64.4° 39.9° - - -
3/28 2:40pm 60 9 G 14 64° 13% - - 11° 64.4° 39.9° - - -
3/28 2:30pm 55 8 G 15 63° 13% - - 10° 63.9° 39.9° - - -
3/28 2:20pm 57 11 G 16 63° 12% - - 11° 63.9° 39.9° - - -
3/28 2:10pm 65 8 G 14 63° 13% - - 11° 63.9° 39.9° - - -
3/28 2:00pm 59 9 G 14 63° 13% - - 11° 63.6° 39.9° - - -
3/28 1:50pm 32 9 G 15 62° 13% - - 10° 63.1° 39.9° - - -
3/28 1:40pm 25 9 G 15 62° 13% - - 10° 63.1° 39.9° - - -
3/28 1:30pm 38 11 G 19 61° 13% - - 62.1° 39.9° - - -
3/28 1:20pm 53 11 G 20 61° 13% - - 10° 62.1° 39.9° - - -
3/28 1:10pm 53 12 G 18 61° 13% - - 10° 61.8° 39.9° - - -
3/28 1:00pm 41 11 G 17 61° 13% - - 10° 61.7° 39.9° - - -
3/28 12:50pm 50 12 G 20 61° 13% - - 10° 61.7° 39.9° - - -
3/28 12:40pm 50 10 G 17 61° 13% - - 10° 61.6° 39.9° - - -
3/28 12:30pm 40 13 G 22 61° 13% - - 10° 61.2° 39.9° - - -
3/28 12:20pm 51 12 G 20 60° 14% - - 11° 60.6° 39.9° - - -
3/28 12:10pm 52 11 G 20 60° 14% - - 11° 60.6° 39.9° - - -
3/28 12:00pm 52 10 G 16 60° 15% - - 11° 60.6° 39.9° - - -
3/28 11:50am 61 12 G 20 59° 14% - - 10° 60.5° 39.9° - - -
3/28 11:40am 53 12 G 19 60° 15% - - 11° 60.5° 39.9° - - -
3/28 11:30am 22 12 G 19 59° 14% - - 10° 60.5° 39.9° - - -
3/28 11:20am 15 11 G 17 60° 15% - - 11° 60.5° 39.9° - - -
3/28 11:10am 24 11 G 21 59° 15% - - 11° 59.4° 39.9° - - -
3/28 11:00am 28 13 G 18 58° 15% - - 11° 59° 39.9° - - -
3/28 10:50am 36 14 G 20 58° 15% - - 10° 59° 39.9° - - -
3/28 10:40am 53 13 G 21 58° 16% - - 12° 59° 39.9° - - -
3/28 10:30am 59 11 G 17 58° 19% - - 15° 58.8° 39.9° - - -
3/28 10:20am 62 13 G 17 56° 20% - - 15° 57° 39.9° - - -
3/28 10:10am 56 12 G 17 56° 20% - - 16° 56.2° 39.9° - - -
3/28 10:00am 66 12 G 16 55° 21% - - 16° 55.7° 39.9° - - -
3/28 9:50am 63 11 G 15 55° 23% - - 17° 55.5° 39.9° - - -
3/28 9:40am 44 12 G 17 54° 23% - - 16° 54.3° 39.9° - - -
3/28 9:30am 55 12 G 16 53° 23% - - 17° 53.9° 39.9° - - -
3/28 9:20am 57 12 G 18 53° 23% - - 17° 53.7° 39.9° - - -
3/28 9:10am 51 11 G 16 53° 24% - - 18° 53.7° 39.9° - - -
3/28 9:00am 50 10 G 15 52° 25% - - 17° 53° 39.9° - - -
3/28 8:50am 64 10 G 16 52° 25% - - 18° 52.8° 39.9° - - -
3/28 8:40am 63 12 G 18 52° 26% - - 18° 52.2° 39.9° - - -
3/28 8:30am 59 11 G 17 51° 28% - - 19° 51.9° 39.9° - - -
3/28 8:20am 77 7 G 10 51° 30% - - 21° 50.9° 39.9° - - -
3/28 8:10am 84 7 G 10 49° 33% - - 22° 50.1° 39.9° - - -
3/28 8:00am 76 8 G 12 48° 37% - - 23° 48.9° 39.9° - - -
3/28 7:50am 85 6 G 11 47° 36% - - 22° 48.9° 39.9° - - -
3/28 7:40am 105 3 G 7 45° 39% - - 22° 48.9° 39.9° - - -
3/28 7:30am 98 4 G 8 45° 40% - - 22° 48.9° 39.9° - - -
3/28 7:20am 10 6 G 10 44° 39% - - 20° 48.9° 39.9° - - -
3/28 7:10am 341 5 G 8 43° 40% - - 20° 48.9° 39.9° - - -
3/28 7:00am 323 5 G 6 43° 38% - - 19° 48.9° 39.9° - - -
3/28 6:50am 340 4 G 8 45° 35% - - 18° 48.9° 39.9° - - -
3/28 6:40am 342 5 G 9 46° 32% - - 18° 48.9° 39.9° - - -
3/28 6:30am 306 5 G 6 44° 35% - - 18° 48.9° 39.9° - - -
3/28 6:20am 315 4 G 6 43° 39% - - 20° 48.9° 39.9° - - -
3/28 6:10am 331 5 G 7 45° 34% - - 18° 48.9° 39.9° - - -
3/28 6:00am 300 6 G 8 46° 34% - - 19° 48.9° 39.9° - - -